Time;durP1;ratioP1;P1;durP2;ratioP2;P2;SDS_P1;SDS_P2;PMS_P1;PMS_P2;Temp;Humidity;BMP_temperature;BMP_pressure;BME280_temperature;BME280_humidity;BME280_pressure;Samples;Min_cycle;Max_cycle;Signal;HPM_P1;HPM_P2
2023/12/21 00:01:49;;;;;;;5.28;2.80;;;;;;;;;;6216588;23;20091;-95
2023/12/21 00:04:19;;;;;;;4.93;2.67;;;;;;;;;;6216725;23;20015;-93
2023/12/21 00:06:48;;;;;;;3.53;2.42;;;;;;;;;;6216530;23;20000;-94
2023/12/21 00:09:18;;;;;;;5.00;2.55;;;;;;;;;;6216474;23;20028;-95
2023/12/21 00:11:51;;;;;;;4.05;3.30;;;;;;;;;;6215123;23;20008;-94
2023/12/21 00:14:17;;;;;;;4.63;2.10;;;;;;;;;;6216350;23;20001;-93
2023/12/21 00:16:46;;;;;;;4.97;2.33;;;;;;;;;;6216828;23;20083;-93
2023/12/21 00:19:12;;;;;;;5.15;2.15;;;;;;;;;;6217095;23;20059;-93
2023/12/21 00:21:38;;;;;;;5.35;2.78;;;;;;;;;;6217036;23;20039;-94
2023/12/21 00:26:48;;;;;;;3.40;2.13;;;;;;;;;;6211286;23;20065;-93
2023/12/21 00:29:21;;;;;;;6.25;2.60;;;;;;;;;;6139496;23;20541;-94
2023/12/21 00:31:47;;;;;;;3.83;2.63;;;;;;;;;;6161979;23;20001;-93
2023/12/21 00:34:16;;;;;;;5.35;2.58;;;;;;;;;;6161980;23;20009;-94
2023/12/21 00:36:47;;;;;;;2.95;1.75;;;;;;;;;;6161835;23;20001;-93
2023/12/21 00:39:13;;;;;;;6.95;1.80;;;;;;;;;;6161257;23;20009;-94
2023/12/21 00:41:39;;;;;;;3.60;2.03;;;;;;;;;;6161426;23;20005;-94
2023/12/21 00:44:08;;;;;;;4.25;2.25;;;;;;;;;;6161379;23;20013;-95
2023/12/21 00:46:40;;;;;;;4.22;1.90;;;;;;;;;;6160787;23;20330;-93
2023/12/21 00:49:06;;;;;;;3.58;2.35;;;;;;;;;;6161223;23;20037;-93
2023/12/21 00:51:33;;;;;;;4.90;2.17;;;;;;;;;;6161413;23;20053;-93
2023/12/21 00:54:05;;;;;;;4.15;1.90;;;;;;;;;;6161335;23;20009;-93
2023/12/21 00:56:31;;;;;;;4.28;2.53;;;;;;;;;;6161207;23;20005;-94
2023/12/21 00:59:04;;;;;;;2.63;2.13;;;;;;;;;;6161996;23;20015;-93
2023/12/21 01:01:30;;;;;;;4.15;2.40;;;;;;;;;;6161354;23;20001;-93
2023/12/21 01:04:22;;;;;;;4.10;2.33;;;;;;;;;;6162061;23;20083;-93
2023/12/21 01:06:48;;;;;;;3.55;1.60;;;;;;;;;;6153461;23;20084;-94
2023/12/21 01:09:14;;;;;;;4.38;1.80;;;;;;;;;;6173801;23;20024;-93
2023/12/21 01:11:44;;;;;;;4.18;1.80;;;;;;;;;;6168606;23;20024;-93
2023/12/21 01:14:16;;;;;;;4.50;1.92;;;;;;;;;;6164158;23;20012;-93
2023/12/21 01:16:45;;;;;;;3.42;1.65;;;;;;;;;;6161631;23;20001;-94
2023/12/21 01:19:16;;;;;;;2.63;1.42;;;;;;;;;;6161579;23;20063;-93
2023/12/21 01:21:51;;;;;;;3.35;2.17;;;;;;;;;;6161628;23;20005;-94
2023/12/21 01:24:20;;;;;;;2.25;1.55;;;;;;;;;;6161198;23;20009;-93
2023/12/21 01:26:49;;;;;;;5.00;2.03;;;;;;;;;;6161916;23;20093;-94
2023/12/21 01:29:24;;;;;;;4.20;1.63;;;;;;;;;;6153533;23;20021;-93
2023/12/21 01:32:00;;;;;;;5.45;2.10;;;;;;;;;;6161788;23;20001;-93
2023/12/21 01:34:29;;;;;;;3.08;1.90;;;;;;;;;;6161580;23;20020;-92
2023/12/21 01:36:55;;;;;;;3.50;1.48;;;;;;;;;;6161605;23;20005;-93
2023/12/21 01:39:28;;;;;;;2.90;1.60;;;;;;;;;;6161264;23;20016;-93
2023/12/21 01:41:54;;;;;;;2.95;1.20;;;;;;;;;;6161558;23;20088;-93
2023/12/21 01:44:28;;;;;;;4.53;2.60;;;;;;;;;;6161076;23;20012;-92
2023/12/21 01:46:54;;;;;;;2.83;1.80;;;;;;;;;;6162726;23;20060;-93
2023/12/21 01:49:21;;;;;;;2.80;1.67;;;;;;;;;;6157894;23;20144;-92
2023/12/21 01:51:54;;;;;;;6.75;1.88;;;;;;;;;;6160761;23;20024;-93
2023/12/21 01:54:25;;;;;;;2.47;1.50;;;;;;;;;;6161221;23;20005;-93
2023/12/21 01:56:55;;;;;;;4.88;1.85;;;;;;;;;;6161717;23;20084;-94
2023/12/21 01:59:31;;;;;;;5.50;1.55;;;;;;;;;;6162178;23;20005;-93
2023/12/21 02:01:57;;;;;;;5.07;1.83;;;;;;;;;;6161859;23;20006;-93
2023/12/21 02:04:26;;;;;;;3.05;1.30;;;;;;;;;;6162001;23;20028;-94
2023/12/21 02:06:56;;;;;;;3.28;1.50;;;;;;;;;;6180611;23;20069;-92
2023/12/21 02:09:25;;;;;;;2.05;1.58;;;;;;;;;;6184254;23;20470;-94
2023/12/21 02:11:54;;;;;;;3.92;1.55;;;;;;;;;;6162691;23;20024;-92
2023/12/21 02:14:27;;;;;;;2.63;1.50;;;;;;;;;;6162845;23;20032;-92
2023/12/21 02:17:00;;;;;;;1.83;1.10;;;;;;;;;;6155306;23;20012;-94
2023/12/21 02:19:33;;;;;;;2.85;1.30;;;;;;;;;;6162576;23;20009;-94
2023/12/21 02:22:00;;;;;;;2.20;1.75;;;;;;;;;;6162580;23;20005;-94
2023/12/21 02:24:35;;;;;;;4.80;2.08;;;;;;;;;;6162309;23;20008;-92
2023/12/21 02:27:02;;;;;;;2.95;1.25;;;;;;;;;;6165318;23;20017;-93
2023/12/21 02:29:38;;;;;;;4.47;1.50;;;;;;;;;;6162846;23;20080;-94
2023/12/21 02:32:04;;;;;;;3.03;1.30;;;;;;;;;;6162546;23;20530;-94
2023/12/21 02:34:36;;;;;;;3.17;1.90;;;;;;;;;;6162323;23;20005;-93
2023/12/21 02:37:08;;;;;;;2.55;1.98;;;;;;;;;;6162357;23;20087;-93
2023/12/21 02:39:40;;;;;;;2.05;1.40;;;;;;;;;;6162503;23;20005;-95
2023/12/21 02:45:14;;;;;;;2.95;1.25;;;;;;;;;;6126752;23;20017;-91
2023/12/21 02:47:49;;;;;;;2.05;1.35;;;;;;;;;;6162357;23;20012;-94
2023/12/21 02:50:18;;;;;;;1.92;1.10;;;;;;;;;;6162162;23;20017;-92
2023/12/21 02:52:50;;;;;;;2.65;1.45;;;;;;;;;;6162967;23;20381;-94
2023/12/21 02:55:19;;;;;;;3.22;1.50;;;;;;;;;;6097728;23;20007;-94
2023/12/21 02:57:51;;;;;;;5.68;1.35;;;;;;;;;;6072851;23;20813;-93
2023/12/21 03:03:15;;;;;;;2.78;1.40;;;;;;;;;;6093303;23;20089;-94
2023/12/21 03:05:44;;;;;;;2.00;1.30;;;;;;;;;;6072971;23;20007;-93
2023/12/21 03:08:13;;;;;;;2.58;1.48;;;;;;;;;;6073559;23;20412;-94
2023/12/21 03:10:45;;;;;;;2.95;1.30;;;;;;;;;;6073283;23;20006;-93
2023/12/21 03:13:11;;;;;;;3.42;1.25;;;;;;;;;;6073866;23;20033;-94
2023/12/21 03:15:49;;;;;;;5.03;1.65;;;;;;;;;;6073294;23;20089;-94
2023/12/21 03:18:21;;;;;;;2.50;1.80;;;;;;;;;;6073476;23;20018;-95
2023/12/21 03:20:50;;;;;;;3.33;1.10;;;;;;;;;;6073548;23;20038;-94
2023/12/21 03:23:16;;;;;;;2.58;1.35;;;;;;;;;;6073629;23;20432;-93
2023/12/21 03:25:42;;;;;;;3.17;1.13;;;;;;;;;;6099595;23;20021;-94
2023/12/21 03:28:10;;;;;;;2.60;0.90;;;;;;;;;;6162191;23;20012;-94
2023/12/21 03:30:39;;;;;;;1.92;1.17;;;;;;;;;;6162392;23;20036;-94
2023/12/21 03:33:11;;;;;;;3.08;1.40;;;;;;;;;;6162709;23;20009;-94
2023/12/21 03:35:43;;;;;;;3.33;0.80;;;;;;;;;;6165430;23;20005;-94
2023/12/21 03:38:09;;;;;;;3.38;1.50;;;;;;;;;;6168837;23;20052;-94
2023/12/21 03:40:41;;;;;;;2.50;1.20;;;;;;;;;;6171339;23;20032;-95
2023/12/21 03:43:12;;;;;;;3.17;1.00;;;;;;;;;;6165809;23;20021;-94
2023/12/21 03:45:41;;;;;;;2.38;1.52;;;;;;;;;;6162995;23;20005;-93
2023/12/21 03:48:08;;;;;;;2.25;1.55;;;;;;;;;;6174872;23;20024;-94
2023/12/21 03:50:35;;;;;;;2.42;1.92;;;;;;;;;;6208154;23;20013;-94
2023/12/21 03:53:04;;;;;;;3.17;1.17;;;;;;;;;;6225922;23;20011;-94
2023/12/21 03:55:37;;;;;;;2.58;1.13;;;;;;;;;;6217791;23;20426;-94
2023/12/21 03:58:09;;;;;;;2.83;1.20;;;;;;;;;;6191623;23;20064;-94
2023/12/21 04:00:39;;;;;;;1.90;1.48;;;;;;;;;;6214868;23;20067;-92
2023/12/21 04:03:08;;;;;;;3.75;1.02;;;;;;;;;;6217201;23;20338;-94
2023/12/21 04:05:46;;;;;;;3.10;1.30;;;;;;;;;;6216734;23;20009;-95
2023/12/21 04:08:13;;;;;;;2.60;1.20;;;;;;;;;;6216474;23;19997;-95
2023/12/21 04:10:42;;;;;;;2.30;1.20;;;;;;;;;;6191546;23;20106;-94
2023/12/21 04:13:17;;;;;;;4.50;1.75;;;;;;;;;;6216842;23;20076;-94
2023/12/21 04:15:47;;;;;;;3.47;1.38;;;;;;;;;;6216252;23;20008;-93
2023/12/21 04:18:19;;;;;;;1.95;1.17;;;;;;;;;;6216352;23;20005;-96
2023/12/21 04:20:49;;;;;;;1.90;1.20;;;;;;;;;;6216338;23;20008;-94
2023/12/21 04:23:15;;;;;;;1.95;1.00;;;;;;;;;;6216435;23;20012;-93
2023/12/21 04:25:44;;;;;;;1.88;1.60;;;;;;;;;;6216194;23;20131;-94
2023/12/21 04:28:10;;;;;;;3.53;1.15;;;;;;;;;;6216533;23;20004;-93
2023/12/21 04:30:36;;;;;;;2.45;0.95;;;;;;;;;;6216328;23;20005;-94
2023/12/21 04:33:02;;;;;;;3.47;1.20;;;;;;;;;;6216662;23;20000;-95
2023/12/21 04:35:35;;;;;;;1.92;1.00;;;;;;;;;;6214307;23;20005;-93
2023/12/21 04:38:01;;;;;;;3.03;1.00;;;;;;;;;;6191354;23;20429;-94
2023/12/21 04:40:33;;;;;;;3.75;1.77;;;;;;;;;;6216639;23;20000;-94
2023/12/21 04:43:05;;;;;;;4.43;1.98;;;;;;;;;;6216754;23;20009;-93
2023/12/21 04:45:31;;;;;;;2.28;1.30;;;;;;;;;;6216135;23;20437;-94
2023/12/21 04:51:14;;;;;;;2.70;1.35;;;;;;;;;;6144059;23;20028;-95
2023/12/21 04:53:46;;;;;;;2.70;1.60;;;;;;;;;;6130877;23;20013;-93
2023/12/21 04:56:15;;;;;;;1.85;1.27;;;;;;;;;;6130732;23;20012;-94
2023/12/21 04:58:53;;;;;;;2.08;1.17;;;;;;;;;;6131294;23;20419;-95
2023/12/21 05:01:36;;;;;;;2.80;1.08;;;;;;;;;;6130891;23;20021;-95
2023/12/21 05:04:10;;;;;;;;;;;;;;;;;;6131231;23;20522;-94
2023/12/21 05:06:41;;;;;;;2.80;1.40;;;;;;;;;;6155642;23;19907;-95
2023/12/21 05:09:11;;;;;;;1.80;1.33;;;;;;;;;;6181612;23;20012;-93
2023/12/21 05:11:40;;;;;;;1.40;0.93;;;;;;;;;;6216085;23;20004;-94
2023/12/21 05:14:09;;;;;;;3.03;2.63;;;;;;;;;;6216199;23;20027;-94
2023/12/21 05:16:41;;;;;;;4.82;1.83;;;;;;;;;;6215905;23;20560;-94
2023/12/21 05:19:10;;;;;;;2.05;1.42;;;;;;;;;;6217020;23;20004;-94
2023/12/21 05:21:54;;;;;;;3.60;1.50;;;;;;;;;;6216022;23;20008;-93
2023/12/21 05:24:21;;;;;;;2.33;1.65;;;;;;;;;;6216634;23;20005;-93
2023/12/21 05:26:50;;;;;;;2.38;1.38;;;;;;;;;;6216224;23;20001;-94
2023/12/21 05:29:19;;;;;;;2.72;1.40;;;;;;;;;;6225080;23;20060;-94
2023/12/21 05:31:45;;;;;;;3.85;2.35;;;;;;;;;;6242705;23;20023;-94
2023/12/21 05:34:33;;;;;;;1.98;1.77;;;;;;;;;;6213698;23;20005;-94
2023/12/21 05:37:08;;;;;;;1.90;1.20;;;;;;;;;;6191845;23;20005;-94
2023/12/21 05:39:48;;;;;;;3.58;1.30;;;;;;;;;;6217015;23;20091;-93
2023/12/21 05:42:14;;;;;;;2.58;1.63;;;;;;;;;;6216242;23;20005;-94
2023/12/21 05:44:40;;;;;;;2.85;1.70;;;;;;;;;;6191074;23;20388;-94
2023/12/21 05:47:12;;;;;;;1.70;1.60;;;;;;;;;;6216057;23;20005;-93
2023/12/21 05:49:38;;;;;;;3.78;1.95;;;;;;;;;;6215609;23;20035;-95
2023/12/21 05:52:11;;;;;;;3.05;1.13;;;;;;;;;;6185870;23;20064;-93
2023/12/21 05:54:54;;;;;;;;;;;;;;;;;;;;;
2023/12/21 05:57:26;;;;;;;3.57;1.77;;;;;;;;;;6188103;23;20395;-95
2023/12/21 05:59:55;;;;;;;5.47;1.95;;;;;;;;;;6186248;23;20007;-94
2023/12/21 06:02:40;;;;;;;3.75;2.33;;;;;;;;;;6185753;23;20005;-94
2023/12/21 06:05:06;;;;;;;3.83;2.13;;;;;;;;;;6146911;23;19996;-94
2023/12/21 06:07:59;;;;;;;4.00;1.38;;;;;;;;;;6144235;23;20001;-94
2023/12/21 06:10:28;;;;;;;2.53;1.83;;;;;;;;;;6074316;23;20026;-94
2023/12/21 06:12:57;;;;;;;9.95;4.05;;;;;;;;;;6072872;23;20006;-95
2023/12/21 06:15:26;;;;;;;3.10;2.10;;;;;;;;;;6072553;23;20018;-95
2023/12/21 06:17:55;;;;;;;2.70;1.02;;;;;;;;;;6072324;23;20034;-93
2023/12/21 06:20:30;;;;;;;2.08;1.15;;;;;;;;;;6072970;23;20007;-94
2023/12/21 06:23:02;;;;;;;1.85;0.75;;;;;;;;;;6072231;23;20456;-93
2023/12/21 06:25:39;;;;;;;1.63;0.70;;;;;;;;;;6072235;23;20002;-93
2023/12/21 06:28:15;;;;;;;1.45;0.85;;;;;;;;;;6072520;23;20022;-95
2023/12/21 06:30:44;;;;;;;2.42;1.48;;;;;;;;;;6072218;23;20097;-95
2023/12/21 06:33:13;;;;;;;1.92;1.35;;;;;;;;;;6072143;23;20006;-95
2023/12/21 06:35:56;;;;;;;2.00;1.20;;;;;;;;;;6083369;23;20010;-94
2023/12/21 06:38:31;;;;;;;2.30;1.10;;;;;;;;;;6125314;23;20081;-94
2023/12/21 06:41:00;;;;;;;3.08;1.30;;;;;;;;;;6123850;23;20051;-93
2023/12/21 06:43:36;;;;;;;1.80;0.60;;;;;;;;;;6184772;23;20033;-96
2023/12/21 06:46:11;;;;;;;2.38;1.38;;;;;;;;;;6185053;23;20009;-93
2023/12/21 06:48:44;;;;;;;2.83;1.08;;;;;;;;;;6185098;23;20465;-92
2023/12/21 06:51:11;;;;;;;2.63;1.60;;;;;;;;;;6185190;23;20067;-93
2023/12/21 06:53:39;;;;;;;2.08;1.27;;;;;;;;;;6154999;23;20005;-94
2023/12/21 06:56:09;;;;;;;1.63;0.70;;;;;;;;;;6156293;23;20005;-93
2023/12/21 06:58:38;;;;;;;1.83;0.85;;;;;;;;;;6156585;23;20469;-94
2023/12/21 07:01:32;;;;;;;2.50;0.90;;;;;;;;;;6156559;23;20484;-93
2023/12/21 07:03:58;;;;;;;2.25;1.02;;;;;;;;;;6140209;23;20010;-95
2023/12/21 07:06:48;;;;;;;3.88;2.35;;;;;;;;;;6132758;23;20013;-96
2023/12/21 07:09:25;;;;;;;3.72;1.88;;;;;;;;;;6156019;23;20770;-93
2023/12/21 07:11:55;;;;;;;5.00;1.95;;;;;;;;;;6189575;22;20008;-95
2023/12/21 07:14:21;;;;;;;6.75;2.97;;;;;;;;;;6243458;22;20004;-95
2023/12/21 07:16:48;;;;;;;6.25;3.65;;;;;;;;;;6260148;22;20035;-95
2023/12/21 07:19:24;;;;;;;;;;;;;;;;;;;;;
2023/12/21 07:21:56;;;;;;;16.83;6.72;;;;;;;;;;6248997;23;20071;-94
2023/12/21 07:24:28;;;;;;;18.95;7.88;;;;;;;;;;6247949;23;20004;-95
2023/12/21 07:27:00;;;;;;;22.35;8.48;;;;;;;;;;6249725;23;20038;-94
2023/12/21 07:29:33;;;;;;;18.17;7.32;;;;;;;;;;6248258;23;20016;-95
2023/12/21 07:32:02;;;;;;;8.30;5.05;;;;;;;;;;6247509;23;20008;-96
2023/12/21 07:34:28;;;;;;;9.35;4.72;;;;;;;;;;6247973;23;20004;-96
2023/12/21 07:37:01;;;;;;;8.70;5.13;;;;;;;;;;6247925;23;20429;-95
2023/12/21 07:39:33;;;;;;;7.60;4.35;;;;;;;;;;6248085;23;20421;-96
2023/12/21 07:45:19;;;;;;;5.65;3.67;;;;;;;;;;6250351;23;20015;-96
2023/12/21 07:47:54;;;;;;;7.05;3.85;;;;;;;;;;6249830;23;20007;-94
2023/12/21 07:50:20;;;;;;;6.97;4.28;;;;;;;;;;6249973;23;20050;-95
2023/12/21 07:52:50;;;;;;;6.97;3.85;;;;;;;;;;6249934;23;20038;-95
2023/12/21 07:58:08;;;;;;;;;;;;;;;;;;;;;
2023/12/21 08:00:37;;;;;;;8.73;5.03;;;;;;;;;;6219815;23;20080;-94
2023/12/21 08:14:50;;;;;;;14.18;6.90;;;;;;;;;;6218784;22;20075;-96
2023/12/21 08:17:55;;;;;;;;;;;;;;;;;;;;;
2023/12/21 08:23:55;;;;;;;11.32;6.55;;;;;;;;;;6201102;22;20024;-96
2023/12/21 08:34:45;;;;;;;16.83;7.68;;;;;;;;;;6229213;22;20028;-95
2023/12/21 08:37:26;;;;;;;13.93;8.23;;;;;;;;;;6202088;23;20012;-96
2023/12/21 08:40:04;;;;;;;12.10;7.43;;;;;;;;;;6187772;23;20090;-93
2023/12/21 08:42:57;;;;;;;13.32;8.32;;;;;;;;;;6196154;23;20009;-95
2023/12/21 08:51:32;;;;;;;10.57;7.32;;;;;;;;;;6100737;23;20388;-94
2023/12/21 08:53:58;;;;;;;13.57;9.68;;;;;;;;;;6076494;23;20010;-93
2023/12/21 08:56:27;;;;;;;16.83;8.57;;;;;;;;;;6170089;23;20020;-93
2023/12/21 08:59:01;;;;;;;13.20;8.02;;;;;;;;;;6213167;23;20292;-95
2023/12/21 09:07:47;;;;;;;17.50;8.35;;;;;;;;;;6099720;23;20045;-96
2023/12/21 09:10:42;;;;;;;9.82;6.13;;;;;;;;;;6099791;23;20010;-96
2023/12/21 09:25:04;;;;;;;11.25;6.82;;;;;;;;;;6218791;22;20143;-96
2023/12/21 09:40:24;;;;;;;10.13;6.47;;;;;;;;;;6229480;23;19908;-96
2023/12/21 09:43:02;;;;;;;12.18;8.25;;;;;;;;;;6194409;23;20036;-96
2023/12/21 09:45:57;;;;;;;17.73;8.63;;;;;;;;;;6200310;23;20068;-96
2023/12/21 09:49:16;;;;;;;14.43;9.25;;;;;;;;;;6202717;23;20039;-96
2023/12/21 09:52:00;;;;;;;17.58;11.30;;;;;;;;;;6223341;23;20005;-96
2023/12/21 10:20:35;;;;;;;17.92;10.82;;;;;;;;;;5991048;24;20027;-95
2023/12/21 10:23:14;;;;;;;18.52;11.85;;;;;;;;;;5988829;24;20044;-93
2023/12/21 10:25:48;;;;;;;23.88;13.27;;;;;;;;;;5961382;24;20140;-94
2023/12/21 10:31:10;;;;;;;;;;;;;;;;;;;;;
2023/12/21 10:37:31;;;;;;;22.55;12.68;;;;;;;;;;6018254;23;20466;-93
2023/12/21 10:42:56;;;;;;;18.80;12.02;;;;;;;;;;6166132;22;20076;-96
2023/12/21 10:48:22;;;;;;;20.08;12.75;;;;;;;;;;6213180;22;20116;-96
2023/12/21 11:04:29;;;;;;;23.10;13.73;;;;;;;;;;5989940;24;20012;-96
2023/12/21 11:10:40;;;;;;;36.50;20.23;;;;;;;;;;6232699;23;20088;-94
2023/12/21 11:13:15;;;;;;;;;;;;;;;;;;;;;
2023/12/21 11:16:05;;;;;;;24.98;15.93;;;;;;;;;;6228727;23;20028;-95
2023/12/21 11:19:12;;;;;;;;;;;;;;;;;;;;;
2023/12/21 11:21:51;;;;;;;;;;;;;;;;;;;;;
2023/12/21 11:37:28;;;;;;;24.13;15.70;;;;;;;;;;5963002;24;20012;-96
2023/12/21 11:46:46;;;;;;;29.90;18.05;;;;;;;;;;5874631;24;20014;-96
2023/12/21 11:49:21;;;;;;;27.58;17.02;;;;;;;;;;5889221;24;20017;-96
2023/12/21 11:51:53;;;;;;;31.75;19.35;;;;;;;;;;5980126;23;20003;-92
2023/12/21 11:57:43;;;;;;;30.17;19.73;;;;;;;;;;6193708;23;20009;-96
2023/12/21 12:06:43;;;;;;;;;;;;;;;;;;;;;
2023/12/21 12:15:17;;;;;;;27.50;17.42;;;;;;;;;;6260980;23;20019;-96
2023/12/21 12:44:55;;;;;;;26.10;16.27;;;;;;;;;;6130046;23;20355;-95
2023/12/21 12:56:02;;;;;;;23.45;15.95;;;;;;;;;;6202164;22;20457;-95
2023/12/21 12:58:41;;;;;;;25.27;15.52;;;;;;;;;;6193821;23;20007;-94
2023/12/21 13:04:26;;;;;;;29.05;16.48;;;;;;;;;;6156316;23;20024;-95
2023/12/21 13:07:14;;;;;;;25.88;15.93;;;;;;;;;;6155921;23;20087;-95
2023/12/21 13:09:48;;;;;;;36.17;23.98;;;;;;;;;;6150817;23;20029;-96
2023/12/21 13:12:15;;;;;;;25.23;16.42;;;;;;;;;;6157751;23;20033;-93
2023/12/21 13:14:44;;;;;;;24.50;15.85;;;;;;;;;;6156400;23;20001;-95
2023/12/21 13:17:36;;;;;;;26.00;16.20;;;;;;;;;;6157667;23;20012;-96
2023/12/21 13:20:11;;;;;;;29.17;16.38;;;;;;;;;;6126672;23;20010;-96
2023/12/21 13:23:08;;;;;;;26.83;16.38;;;;;;;;;;6126082;23;20317;-96
2023/12/21 13:25:37;;;;;;;25.02;16.35;;;;;;;;;;6130526;23;20026;-96
2023/12/21 13:30:40;;;;;;;24.48;15.75;;;;;;;;;;6218918;23;20085;-96
2023/12/21 13:36:18;;;;;;;25.52;16.42;;;;;;;;;;6193873;23;20001;-96
2023/12/21 14:01:34;;;;;;;26.35;17.40;;;;;;;;;;6181024;22;20131;-96
2023/12/21 14:18:23;;;;;;;28.30;17.20;;;;;;;;;;6220464;22;20028;-95
2023/12/21 14:45:14;;;;;;;29.42;16.38;;;;;;;;;;6226989;23;20021;-95
2023/12/21 14:56:39;;;;;;;25.40;16.25;;;;;;;;;;6133143;23;20014;-95
2023/12/21 14:59:18;;;;;;;;;;;;;;;;;;;;;
2023/12/21 15:28:51;;;;;;;21.75;12.57;;;;;;;;;;6239781;22;20020;-95
2023/12/21 15:34:35;;;;;;;18.35;11.00;;;;;;;;;;6235442;22;20047;-95
2023/12/21 15:40:28;;;;;;;18.25;11.02;;;;;;;;;;6230606;23;20085;-96
2023/12/21 15:43:33;;;;;;;19.85;13.00;;;;;;;;;;6222140;23;20000;-96
2023/12/21 16:10:48;;;;;;;;;;;;;;;;;;;;;
2023/12/21 16:44:55;;;;;;;23.13;14.57;;;;;;;;;;6006372;23;20815;-96
2023/12/21 17:03:23;;;;;;;27.70;16.90;;;;;;;;;;6179416;22;20025;-96
2023/12/21 17:09:34;;;;;;;;;;;;;;;;;;;;;
2023/12/21 17:18:48;;;;;;;32.00;19.27;;;;;;;;;;6107746;23;20538;-96
2023/12/21 17:21:34;;;;;;;27.10;16.15;;;;;;;;;;6078890;23;20003;-96
2023/12/21 17:40:16;;;;;;;;;;;;;;;;;;;;;
2023/12/21 17:42:38;;;;;;;;;;;;;;;;;;;;;
2023/12/21 17:57:16;;;;;;;36.72;20.13;;;;;;;;;;6214810;22;20024;-94
2023/12/21 18:05:55;;;;;;;;;;;;;;;;;;;;;
2023/12/21 18:32:12;;;;;;;27.23;16.10;;;;;;;;;;6223531;23;20085;-96
2023/12/21 18:52:05;;;;;;;;;;;;;;;;;;;;;
2023/12/21 18:55:17;;;;;;;29.92;17.90;;;;;;;;;;6172792;23;20033;-96
2023/12/21 19:00:59;;;;;;;28.58;15.45;;;;;;;;;;6111363;23;20002;-95
2023/12/21 19:03:34;;;;;;;26.25;14.98;;;;;;;;;;6150905;23;20024;-96
2023/12/21 19:06:25;;;;;;;24.13;14.77;;;;;;;;;;6141829;23;20412;-96
2023/12/21 19:09:01;;;;;;;;;;;;;;;;;;;;;
2023/12/21 19:11:28;;;;;;;24.55;14.98;;;;;;;;;;6166588;23;20056;-95
2023/12/21 19:14:39;;;;;;;;;;;;;;;;;;;;;
2023/12/21 19:23:13;;;;;;;;;;;;;;;;;;;;;
2023/12/21 19:25:51;;;;;;;26.45;15.23;;;;;;;;;;6230340;23;20021;-94
2023/12/21 19:28:38;;;;;;;27.30;15.82;;;;;;;;;;6200172;23;20068;-95
2023/12/21 19:31:15;;;;;;;29.75;17.15;;;;;;;;;;6207375;23;20023;-96
2023/12/21 19:33:41;;;;;;;27.05;16.88;;;;;;;;;;6203305;23;20020;-96
2023/12/21 19:38:52;;;;;;;26.98;16.73;;;;;;;;;;6208746;22;20029;-96
2023/12/21 19:41:36;;;;;;;27.33;16.23;;;;;;;;;;6198672;23;20008;-96
2023/12/21 19:53:29;;;;;;;;;;;;;;;;;;;;;
2023/12/21 19:55:55;;;;;;;26.83;16.17;;;;;;;;;;6229931;23;20024;-95
2023/12/21 19:58:34;;;;;;;;;;;;;;;;;;;;;
2023/12/21 20:01:10;;;;;;;29.90;17.20;;;;;;;;;;6223610;23;20383;-96
2023/12/21 20:03:40;;;;;;;30.42;16.58;;;;;;;;;;6198800;23;20001;-96
2023/12/21 20:09:21;;;;;;;29.15;17.00;;;;;;;;;;6235905;23;20026;-94
2023/12/21 20:14:59;;;;;;;28.27;16.38;;;;;;;;;;6220272;22;20390;-96
2023/12/21 20:23:47;;;;;;;27.98;16.05;;;;;;;;;;6108122;23;20032;-96
2023/12/21 20:26:15;;;;;;;26.67;16.38;;;;;;;;;;6079970;23;20508;-95
2023/12/21 21:12:36;;;;;;;1.85;1.17;;;;;;;;;;6160674;23;20011;-94
2023/12/21 21:15:05;;;;;;;3.08;1.33;;;;;;;;;;6193625;23;20105;-94
2023/12/21 21:21:35;;;;;;;;;;;;;;;;;;6128827;23;20021;-95
2023/12/21 21:23:50;;;;;;;2.45;0.70;;;;;;;;;;6116177;23;19901;-96
2023/12/21 21:30:00;;;;;;;0.80;0.63;;;;;;;;;;6040795;23;20488;-95
2023/12/21 21:32:55;;;;;;;;;;;;;;;;;;;;;
2023/12/21 21:36:29;;;;;;;1.58;1.20;;;;;;;;;;6044176;23;20019;-96
2023/12/21 21:47:33;;;;;;;1.77;1.50;;;;;;;;;;6044957;23;20135;-96
2023/12/21 21:53:23;;;;;;;1.08;0.98;;;;;;;;;;5982608;23;20020;-93
2023/12/21 21:59:29;;;;;;;1.25;1.00;;;;;;;;;;5929203;24;20020;-95
2023/12/21 22:02:17;;;;;;;1.10;1.00;;;;;;;;;;5930982;24;20965;-96
2023/12/21 22:08:20;;;;;;;;;;;;;;;;;;;;;
2023/12/21 22:17:15;;;;;;;1.38;1.20;;;;;;;;;;5967759;24;20023;-95
2023/12/21 22:19:59;;;;;;;1.00;0.90;;;;;;;;;;5980187;24;20008;-96
2023/12/21 22:22:35;;;;;;;1.70;1.42;;;;;;;;;;6036182;23;20011;-96
2023/12/21 22:25:09;;;;;;;2.65;1.10;;;;;;;;;;6088544;23;20001;-94
2023/12/21 22:50:17;;;;;;;1.98;0.90;;;;;;;;;;6260464;23;20011;-96
2023/12/21 23:03:06;;;;;;;2.60;1.27;;;;;;;;;;6044617;23;20015;-96
2023/12/21 23:19:46;;;;;;;1.67;0.70;;;;;;;;;;6220416;23;20017;-93
2023/12/21 23:22:45;;;;;;;1.15;0.73;;;;;;;;;;6158390;23;20478;-95
2023/12/21 23:25:32;;;;;;;3.85;1.40;;;;;;;;;;6122750;23;20003;-94
2023/12/21 23:28:10;;;;;;;0.77;0.63;;;;;;;;;;6101858;23;20006;-95
2023/12/21 23:30:43;;;;;;;1.77;0.50;;;;;;;;;;6098267;23;20014;-93
2023/12/21 23:33:22;;;;;;;0.88;0.65;;;;;;;;;;6076581;23;20022;-94
2023/12/21 23:38:57;;;;;;;1.73;1.63;;;;;;;;;;6100857;23;20066;-96
2023/12/21 23:42:00;;;;;;;1.33;0.68;;;;;;;;;;6100248;23;20007;-95
2023/12/21 23:44:42;;;;;;;0.90;0.60;;;;;;;;;;6096553;23;20010;-94
2023/12/21 23:50:33;;;;;;;;;;;;;;;;;;;;;
2023/12/21 23:53:50;;;;;;;;;;;;;;;;;;;;;
2023/12/21 23:56:52;;;;;;;;;;;;;;;;;;;;;
2023/12/21 23:59:44;;;;;;;1.95;0.60;;;;;;;;;;6100020;23;20097;-95
